Huvudsida
METAR-TAF:

METAR-TAF

Flygplatser :

Cerklje ob Krki, Slovenien

latitud: 45-53-59N, longitud: 15-30-55E, höjd: 157 m

Aktuellt väderrapport

Denna rapport gjordes för 13 minuter sedan, klockan 19:00 UTC
Vind 4 kt från syd/sydost, varierande mellan ost/nordost och syd
Temperatur 3°C
Fuktighet 52%
Tryck 1021 hPa
Sikt 10 km eller mer

METAR: LJCE 281900Z AUTO 16004KT 070V190 9999 NCD 03/M06 Q1021

Tid: 20:13 (19:13 UTC)

Väderprognos

Denna rapport gjordes för 2 timmar och 13 minuter sedan, klockan 17:00 UTC
Prognos gäller från 28 kl. 18 UTC till 29 kl. 03 UTC
Vind 4 kt från nord/nordväst
Sikt 10 km eller mer
Inga moln under 1 500 m eller inga cumulonimbus

TAF: LJCE 281700Z 2818/2903 33004KT CAVOK

Aktuella väderrapporter och prognoser från 4000 flygplatser (METAR- och TAF-rapporter).

De tillgängliga stationerna syns som gula och röda prickar på kartan.

För musen över prickarna för att se namnen på stationerna.

Klicka sedan för att få väderrapporter och prognoser.

För att ändra kartan: Klicka på de gröna knapparna med ett svart kors på för att zooma in; den gröna knappen med ett streck på för att zooma ut; eller på de gröna pilarna för angränsande kartor.


METAR-TAF: